Jump to content
  • Member Statistics

    15,515
    Total Members
    7,904
    Most Online
    chrislittlenews
    Newest Member
    chrislittlenews
    Joined
40/70 Benchmark

The King Regains its Throne

Recommended Posts

Fiancé is a preschool teacher, they don’t get normal school vacations and built in time off. She’s been asking for days now if she’s got a shot at a snow day tomorrow.

Id say the chances have gone up significantly for Eastern areas tomorrow.

Share this post


Link to post
Share on other sites
Just now, StormSurge said:

Buddy on FB just reported thundersnow in Brooklyn, NY.

METAR KLGA 071715Z 05023G32KT 1 1/2SM VCTS -SN BR BKN006 OVC011 02/01 A2964 RMK
                 AO2 PK WND 06032/1711 SFC VIS 2 RAE04 P0001 T00220006 =
  • Like 1

Share this post


Link to post
Share on other sites
3 minutes ago, CTNoreaster said:

Game on, accumulation started maybe 15 mins ago.

Yeah accumulating better than I thought it would actually. Flakes have become more of the typical smaller size we see in storms, i.e. less wet.

Share this post


Link to post
Share on other sites

A few mangled flakes her in Manchester.  Forecast from one of the news outlets says 6" incoming for here.  
Back home in Brooklyn my daughter (whose school was unnecessarily cancelled this a.m.) says nothing is happening, although the radar shows light rain over there.  

Share this post


Link to post
Share on other sites
20 minutes ago, dendrite said:
METAR KLGA 071715Z 05023G32KT 1 1/2SM VCTS -SN BR BKN006 OVC011 02/01 A2964 RMK
                 AO2 PK WND 06032/1711 SFC VIS 2 RAE04 P0001 T00220006 =

KLGA 071735Z 05022G28KT 1/4SM R04/2200V3000FT VCTS +SN FG OVC005 01/M01 A2962 RMK AO2 PK WND 06032/1711 RAE04 PRESFR P0004 T00111006

Share this post


Link to post
Share on other sites

Defintely some elevation dependency early on.  I'm only a little over 400' and have gotten 1" so far, downtown Greenfield at 200' has almost nothing. 

Share this post


Link to post
Share on other sites

Create an account or sign in to comment

You need to be a member in order to leave a comment

Create an account

Sign up for a new account in our community. It's easy!

Register a new account

Sign in

Already have an account? Sign in here.

Sign In Now

  • Recently Browsing   0 members

    No registered users viewing this page.

×